createdAt,value
2023-05-12T00:00:44.644Z,41.30
2023-05-12T00:01:44.662Z,41.29
2023-05-12T00:02:44.782Z,41.29
2023-05-12T00:03:44.867Z,41.26
2023-05-12T00:04:44.688Z,41.27
2023-05-12T00:05:44.661Z,41.27
2023-05-12T00:06:44.651Z,41.26
2023-05-12T00:07:44.646Z,41.24
2023-05-12T00:08:44.624Z,41.25
2023-05-12T00:09:44.654Z,41.28
2023-05-12T00:10:44.739Z,41.25
2023-05-12T00:11:44.637Z,41.26
2023-05-12T00:12:44.628Z,41.26
2023-05-12T00:13:44.669Z,41.25
2023-05-12T00:14:44.651Z,41.23
2023-05-12T00:15:44.663Z,41.22
2023-05-12T00:16:44.726Z,41.23
2023-05-12T00:17:44.688Z,41.21
2023-05-12T00:18:44.682Z,41.24
2023-05-12T00:19:44.640Z,41.21
2023-05-12T00:20:44.641Z,41.19
2023-05-12T00:21:44.641Z,41.22
2023-05-12T00:22:44.636Z,41.21
2023-05-12T00:23:44.646Z,41.20
2023-05-12T00:24:44.652Z,41.19
2023-05-12T00:25:44.660Z,41.20
2023-05-12T00:26:44.661Z,41.21
2023-05-12T00:27:44.675Z,41.17
2023-05-12T00:28:44.675Z,41.17
2023-05-12T00:29:44.687Z,41.16
2023-05-12T00:30:44.699Z,41.17
2023-05-12T00:31:44.705Z,41.16
2023-05-12T00:32:44.768Z,41.16
2023-05-12T00:33:44.713Z,41.15
2023-05-12T00:34:44.734Z,41.13
2023-05-12T00:35:44.972Z,41.13
2023-05-12T00:36:44.739Z,41.14
2023-05-12T00:37:44.748Z,41.15
2023-05-12T00:38:44.732Z,41.14
2023-05-12T00:39:44.714Z,41.13
2023-05-12T00:40:44.724Z,41.12
2023-05-12T00:41:44.719Z,41.09
2023-05-12T00:42:44.765Z,41.12
2023-05-12T00:43:44.721Z,41.10
2023-05-12T00:44:44.708Z,41.10
2023-05-12T00:45:44.751Z,41.12
2023-05-12T00:46:44.692Z,41.10
2023-05-12T00:47:44.758Z,41.12
2023-05-12T00:48:44.682Z,41.12
2023-05-12T00:49:44.677Z,41.10
2023-05-12T00:50:44.674Z,41.08
2023-05-12T00:51:44.680Z,41.08
2023-05-12T00:52:44.672Z,41.08
2023-05-12T00:53:49.770Z,41.08
2023-05-12T00:54:45.642Z,41.08
2023-05-12T00:55:44.613Z,41.04
2023-05-12T00:56:44.574Z,41.07
2023-05-12T00:57:44.531Z,41.05
2023-05-12T00:58:44.503Z,41.06
2023-05-12T00:59:44.459Z,41.04
2023-05-12T01:00:44.434Z,41.02
2023-05-12T01:01:44.422Z,41.05
2023-05-12T01:02:44.431Z,41.05
2023-05-12T01:03:44.344Z,41.04
2023-05-12T01:04:44.299Z,41.04
2023-05-12T01:05:44.249Z,41.02
2023-05-12T01:06:44.217Z,41.03
2023-05-12T01:07:44.173Z,41.03
2023-05-12T01:08:44.188Z,41.00
2023-05-12T01:09:44.165Z,41.01
2023-05-12T01:10:44.168Z,41.01
2023-05-12T01:11:44.136Z,40.99
2023-05-12T01:12:44.152Z,41.01
2023-05-12T01:13:44.149Z,40.96
2023-05-12T01:14:44.166Z,41.00
2023-05-12T01:15:44.124Z,40.99
2023-05-12T01:16:44.147Z,40.99
2023-05-12T01:17:44.193Z,40.99
2023-05-12T01:18:44.234Z,40.97
2023-05-12T01:19:44.098Z,40.97
2023-05-12T01:20:44.108Z,40.97
2023-05-12T01:21:44.095Z,40.96
2023-05-12T01:22:44.097Z,40.95
2023-05-12T01:23:44.092Z,40.94
2023-05-12T01:24:44.113Z,40.95
2023-05-12T01:25:44.102Z,40.93
2023-05-12T01:26:44.103Z,40.94
2023-05-12T01:27:44.105Z,40.95
2023-05-12T01:28:44.102Z,40.94
2023-05-12T01:29:44.094Z,40.94
2023-05-12T01:30:44.174Z,40.93
2023-05-12T01:31:44.141Z,40.95
2023-05-12T01:32:44.115Z,40.91
2023-05-12T01:33:44.085Z,40.91
2023-05-12T01:34:44.087Z,40.90
2023-05-12T01:35:44.096Z,40.89
2023-05-12T01:36:44.099Z,40.91
2023-05-12T01:37:44.101Z,40.91
2023-05-12T01:38:44.084Z,40.88
2023-05-12T01:39:44.124Z,40.90
2023-05-12T01:40:44.075Z,40.86
2023-05-12T01:41:44.086Z,40.88
2023-05-12T01:42:44.097Z,40.90
2023-05-12T01:43:44.090Z,40.89
2023-05-12T01:44:44.069Z,40.89
2023-05-12T01:45:44.067Z,40.88
2023-05-12T01:46:44.094Z,40.86
2023-05-12T01:47:44.151Z,40.86
2023-05-12T01:48:44.088Z,40.88
2023-05-12T01:49:44.087Z,40.86
2023-05-12T01:50:44.053Z,40.87
2023-05-12T01:51:44.068Z,40.86
2023-05-12T01:52:44.047Z,40.84
2023-05-12T01:53:44.053Z,40.86
2023-05-12T01:54:44.051Z,40.86
2023-05-12T01:55:44.053Z,40.85
2023-05-12T01:56:44.038Z,40.85
2023-05-12T01:57:44.058Z,40.83
2023-05-12T01:58:44.102Z,40.82
2023-05-12T01:59:44.093Z,40.83
2023-05-12T02:00:44.069Z,40.83
2023-05-12T02:01:44.135Z,40.82
2023-05-12T02:02:44.159Z,40.83
2023-05-12T02:03:44.221Z,40.81
2023-05-12T02:04:44.062Z,40.80
2023-05-12T02:05:44.072Z,40.81
2023-05-12T02:06:44.062Z,40.81
2023-05-12T02:07:44.063Z,40.78
2023-05-12T02:08:44.074Z,40.79
2023-05-12T02:09:44.083Z,40.80
2023-05-12T02:10:44.058Z,40.80
2023-05-12T02:11:44.122Z,40.78
2023-05-12T02:12:44.057Z,40.77
2023-05-12T02:13:44.048Z,40.76
2023-05-12T02:14:44.061Z,40.77
2023-05-12T02:15:44.049Z,40.77
2023-05-12T02:16:44.248Z,40.79
2023-05-12T02:17:44.107Z,40.77
2023-05-12T02:18:44.192Z,40.76
2023-05-12T02:19:44.053Z,40.75
2023-05-12T02:20:44.073Z,40.76
2023-05-12T02:21:44.056Z,40.75
2023-05-12T02:22:44.060Z,40.74
2023-05-12T02:23:44.043Z,40.75
2023-05-12T02:24:44.051Z,40.74
2023-05-12T02:25:44.058Z,40.73
2023-05-12T02:26:44.068Z,40.73
2023-05-12T02:27:44.068Z,40.72
2023-05-12T02:28:44.071Z,40.74
2023-05-12T02:29:44.070Z,40.72
2023-05-12T02:30:44.064Z,40.72
2023-05-12T02:31:44.125Z,40.73
2023-05-12T02:32:44.113Z,40.71
2023-05-12T02:33:44.146Z,40.70
2023-05-12T02:34:44.080Z,40.69
2023-05-12T02:35:44.092Z,40.72
2023-05-12T02:36:44.100Z,40.69
2023-05-12T02:37:44.096Z,40.70
2023-05-12T02:38:44.107Z,40.68
2023-05-12T02:39:44.105Z,40.66
2023-05-12T02:40:44.113Z,40.68
2023-05-12T02:41:44.122Z,40.69
2023-05-12T02:42:44.132Z,40.69
2023-05-12T02:43:44.167Z,40.66
2023-05-12T02:44:44.146Z,40.67
2023-05-12T02:45:44.265Z,40.67
2023-05-12T02:46:44.150Z,40.66
2023-05-12T02:47:44.203Z,40.64
2023-05-12T02:48:44.168Z,40.67
2023-05-12T02:49:44.151Z,40.65
2023-05-12T02:50:44.177Z,40.64
2023-05-12T02:51:44.173Z,40.64
2023-05-12T02:52:44.177Z,40.64
2023-05-12T02:53:44.182Z,40.63
2023-05-12T02:54:44.172Z,40.61
2023-05-12T02:55:44.173Z,40.63
2023-05-12T02:56:44.191Z,40.63
2023-05-12T02:57:44.190Z,40.63
2023-05-12T02:58:44.217Z,40.60
2023-05-12T02:59:44.207Z,40.58
2023-05-12T03:00:44.202Z,40.61
2023-05-12T03:01:44.220Z,40.61
2023-05-12T03:02:44.285Z,40.63
2023-05-12T03:03:44.470Z,40.60
2023-05-12T03:04:44.229Z,40.58
2023-05-12T03:05:44.217Z,40.57
2023-05-12T03:06:44.270Z,40.61
2023-05-12T03:07:44.222Z,40.60
2023-05-12T03:08:44.240Z,40.57
2023-05-12T03:09:44.226Z,40.58
2023-05-12T03:10:44.240Z,40.57
2023-05-12T03:11:44.238Z,40.55
2023-05-12T03:12:44.238Z,40.57
2023-05-12T03:13:44.238Z,40.58
2023-05-12T03:14:44.244Z,40.55
2023-05-12T03:15:44.223Z,40.57
2023-05-12T03:16:44.261Z,40.55
2023-05-12T03:17:44.263Z,40.56
2023-05-12T03:18:44.292Z,40.54
2023-05-12T03:19:44.245Z,40.54
2023-05-12T03:20:44.240Z,40.55
2023-05-12T03:21:44.248Z,40.54
2023-05-12T03:22:44.251Z,40.55
2023-05-12T03:23:44.263Z,40.55
2023-05-12T03:24:44.268Z,40.52
2023-05-12T03:25:44.266Z,40.57
2023-05-12T03:26:44.294Z,40.52
2023-05-12T03:27:44.296Z,40.54
2023-05-12T03:28:44.295Z,40.50
2023-05-12T03:29:44.308Z,40.51
2023-05-12T03:30:44.300Z,40.50
2023-05-12T03:31:44.383Z,40.53
2023-05-12T03:32:44.324Z,40.52
2023-05-12T03:33:44.323Z,40.49
2023-05-12T03:34:44.333Z,40.49
2023-05-12T03:35:44.355Z,40.48
2023-05-12T03:36:44.338Z,40.47
2023-05-12T03:37:44.377Z,40.50
2023-05-12T03:38:44.344Z,40.49
2023-05-12T03:39:44.385Z,40.49
2023-05-12T03:40:44.367Z,40.46
2023-05-12T03:41:44.393Z,40.49
2023-05-12T03:42:44.381Z,40.46
2023-05-12T03:43:44.409Z,40.46
2023-05-12T03:44:44.404Z,40.48
2023-05-12T03:45:44.429Z,40.45
2023-05-12T03:46:44.518Z,40.45
2023-05-12T03:47:44.557Z,40.44
2023-05-12T03:48:44.421Z,40.44
2023-05-12T03:49:44.447Z,40.43
2023-05-12T03:50:44.445Z,40.46
2023-05-12T03:51:44.462Z,40.47
2023-05-12T03:52:45.107Z,40.43
2023-05-12T03:53:44.475Z,40.44
2023-05-12T03:54:44.501Z,40.41
2023-05-12T03:55:44.486Z,40.43
2023-05-12T03:56:44.497Z,40.42
2023-05-12T03:57:44.504Z,40.40
2023-05-12T03:58:44.510Z,40.41
2023-05-12T03:59:44.521Z,40.39
2023-05-12T04:00:44.525Z,40.42
2023-05-12T04:01:44.577Z,40.41
2023-05-12T04:02:44.677Z,40.40
2023-05-12T04:03:44.614Z,40.42
2023-05-12T04:04:44.585Z,40.40
2023-05-12T04:05:44.591Z,40.36
2023-05-12T04:06:44.603Z,40.38
2023-05-12T04:07:44.612Z,40.37
2023-05-12T04:08:44.620Z,40.37
2023-05-12T04:09:44.604Z,40.38
2023-05-12T04:10:44.627Z,40.36
2023-05-12T04:11:44.627Z,40.37
2023-05-12T04:12:44.653Z,40.38
2023-05-12T04:13:44.652Z,40.36
2023-05-12T04:14:44.672Z,40.36
2023-05-12T04:15:44.682Z,40.34
2023-05-12T04:16:44.726Z,40.34
2023-05-12T04:17:44.722Z,40.36
2023-05-12T04:18:44.697Z,40.35
2023-05-12T04:19:44.692Z,40.35
2023-05-12T04:20:44.700Z,40.35
2023-05-12T04:21:44.710Z,40.33
2023-05-12T04:22:44.707Z,40.32
2023-05-12T04:23:44.712Z,40.31
2023-05-12T04:24:44.721Z,40.32
2023-05-12T04:25:44.735Z,40.34
2023-05-12T04:26:44.744Z,40.33
2023-05-12T04:27:44.770Z,40.33
2023-05-12T04:28:44.852Z,40.31
2023-05-12T04:29:44.818Z,40.31
2023-05-12T04:30:44.811Z,40.30
2023-05-12T04:31:44.874Z,40.29
2023-05-12T04:32:44.912Z,40.29
2023-05-12T04:33:46.920Z,40.29
2023-05-12T04:34:44.831Z,40.29
2023-05-12T04:35:44.806Z,40.27
2023-05-12T04:36:44.768Z,40.25
2023-05-12T04:37:44.745Z,40.27
2023-05-12T04:38:44.713Z,40.27
2023-05-12T04:39:44.686Z,40.25
2023-05-12T04:40:44.645Z,40.25
2023-05-12T04:41:44.614Z,40.25
2023-05-12T04:42:44.614Z,40.25
2023-05-12T04:44:44.535Z,40.25
2023-05-12T04:45:44.525Z,40.25
2023-05-12T04:46:44.496Z,40.24
2023-05-12T04:47:44.492Z,40.22
2023-05-12T04:48:44.415Z,40.21
2023-05-12T04:49:44.384Z,40.21
2023-05-12T04:50:44.360Z,40.21
2023-05-12T04:51:44.325Z,40.19
2023-05-12T04:52:44.296Z,40.21
2023-05-12T04:53:44.263Z,40.22
2023-05-12T04:54:44.251Z,40.19
2023-05-12T04:55:44.198Z,40.18
2023-05-12T04:56:44.179Z,40.19
2023-05-12T04:57:44.152Z,40.20
2023-05-12T04:58:44.097Z,40.19
2023-05-12T04:59:44.059Z,40.19
2023-05-12T05:00:44.042Z,40.15
2023-05-12T05:01:44.193Z,40.16
2023-05-12T05:02:44.009Z,40.15
2023-05-12T05:03:44.128Z,40.13
2023-05-12T05:04:43.882Z,40.13
2023-05-12T05:05:43.857Z,40.15
2023-05-12T05:06:43.815Z,40.12
2023-05-12T05:07:43.786Z,40.12
2023-05-12T05:08:43.736Z,40.12
2023-05-12T05:09:43.716Z,40.10
2023-05-12T05:10:43.666Z,40.10
2023-05-12T05:11:43.657Z,40.12
2023-05-12T05:12:43.600Z,40.10
2023-05-12T05:13:43.583Z,40.09
2023-05-12T05:14:43.540Z,40.08
2023-05-12T05:15:43.590Z,40.12
2023-05-12T05:16:43.486Z,40.10
2023-05-12T05:17:43.557Z,40.07
2023-05-12T05:18:43.438Z,40.12
2023-05-12T05:19:54.891Z,39.75
2023-05-12T05:20:45.610Z,39.25
2023-05-12T05:21:44.339Z,39.03
2023-05-12T05:22:43.308Z,38.74
2023-05-12T05:23:43.292Z,38.32
2023-05-12T05:24:43.267Z,38.65
2023-05-12T05:25:43.242Z,38.60
2023-05-12T05:26:43.215Z,38.73
2023-05-12T05:27:43.198Z,38.91
2023-05-12T05:28:43.165Z,40.05
2023-05-12T05:29:43.140Z,40.26
2023-05-12T05:30:44.006Z,41.22
2023-05-12T05:31:43.098Z,40.80
2023-05-12T05:32:43.068Z,41.10
2023-05-12T05:33:44.005Z,41.41
2023-05-12T05:34:43.026Z,41.19
2023-05-12T05:35:42.913Z,41.36
2023-05-12T05:36:42.882Z,41.78
2023-05-12T05:37:42.853Z,41.87
2023-05-12T05:38:42.802Z,41.95
2023-05-12T05:39:42.764Z,42.12
2023-05-12T05:40:53.086Z,42.28
2023-05-12T05:41:43.726Z,42.38
2023-05-12T05:42:42.644Z,42.54
2023-05-12T05:43:42.588Z,42.73
2023-05-12T05:44:42.544Z,42.78
2023-05-12T05:45:42.524Z,43.28
2023-05-12T05:46:42.480Z,43.14
2023-05-12T05:47:42.517Z,43.17
2023-05-12T05:48:42.374Z,43.37
2023-05-12T05:49:42.319Z,43.46
2023-05-12T05:50:42.300Z,43.66
2023-05-12T05:51:42.306Z,43.67
2023-05-12T05:52:42.310Z,43.88
2023-05-12T05:53:42.307Z,44.06
2023-05-12T05:54:42.298Z,44.23
2023-05-12T05:55:42.315Z,44.37
2023-05-12T05:56:42.311Z,44.32
2023-05-12T05:57:42.310Z,44.41
2023-05-12T05:58:42.302Z,44.66
2023-05-12T05:59:42.302Z,44.76
2023-05-12T06:00:42.294Z,44.96
2023-05-12T06:01:42.328Z,45.00
2023-05-12T06:02:42.481Z,45.23
2023-05-12T06:03:42.363Z,45.21
2023-05-12T06:04:42.276Z,45.27
2023-05-12T06:05:42.342Z,45.33
2023-05-12T06:06:42.253Z,45.40
2023-05-12T06:07:42.303Z,45.33
2023-05-12T06:08:42.239Z,45.45
2023-05-12T06:09:42.229Z,45.65
2023-05-12T06:10:42.242Z,45.89
2023-05-12T06:11:42.196Z,45.83
2023-05-12T06:12:42.186Z,45.98
2023-05-12T06:13:42.184Z,46.21
2023-05-12T06:14:42.155Z,46.14
2023-05-12T06:15:42.134Z,46.25
2023-05-12T06:16:42.189Z,46.50
2023-05-12T06:17:42.150Z,46.83
2023-05-12T06:18:42.139Z,46.65
2023-05-12T06:19:42.084Z,47.10
2023-05-12T06:20:42.614Z,45.98
2023-05-12T06:21:42.065Z,46.63
2023-05-12T06:22:42.079Z,45.93
2023-05-12T06:23:42.044Z,45.47
2023-05-12T06:24:42.035Z,45.49
2023-05-12T06:25:42.080Z,45.55
2023-05-12T06:26:42.091Z,45.52
2023-05-12T06:27:42.012Z,45.56
2023-05-12T06:28:42.012Z,45.43
2023-05-12T06:29:42.002Z,45.42
2023-05-12T06:30:42.033Z,45.12
2023-05-12T06:31:42.029Z,45.02
2023-05-12T06:32:42.032Z,44.81
2023-05-12T06:33:41.960Z,44.84
2023-05-12T06:34:42.001Z,44.47
2023-05-12T06:35:41.943Z,44.39
2023-05-12T06:36:41.940Z,44.07
2023-05-12T06:37:41.913Z,43.92
2023-05-12T06:38:41.918Z,43.74
2023-05-12T06:39:41.848Z,43.68
2023-05-12T06:40:41.857Z,43.51
2023-05-12T06:41:41.793Z,43.40
2023-05-12T06:42:41.791Z,43.23
2023-05-12T06:43:41.741Z,43.10
2023-05-12T06:44:42.467Z,43.02
2023-05-12T06:45:41.708Z,43.08
2023-05-12T06:46:41.714Z,42.97
2023-05-12T06:47:41.728Z,42.84
2023-05-12T06:48:41.650Z,42.66
2023-05-12T06:49:41.615Z,42.57
2023-05-12T06:50:41.629Z,42.45
2023-05-12T06:51:41.574Z,42.37
2023-05-12T06:52:41.593Z,42.35
2023-05-12T06:53:41.548Z,42.20
2023-05-12T06:54:41.539Z,42.08
2023-05-12T06:55:41.502Z,41.82
2023-05-12T06:56:41.493Z,41.75
2023-05-12T06:57:41.478Z,41.58
2023-05-12T06:58:41.464Z,41.46
2023-05-12T06:59:41.426Z,41.48
2023-05-12T07:00:41.407Z,41.40
2023-05-12T07:01:41.441Z,41.31
2023-05-12T07:02:41.448Z,41.13
2023-05-12T07:03:41.484Z,41.05
2023-05-12T07:04:41.387Z,40.76
2023-05-12T07:05:41.461Z,40.70
2023-05-12T07:06:41.523Z,40.53
2023-05-12T07:07:41.364Z,40.41
2023-05-12T07:08:41.368Z,40.35
2023-05-12T07:09:41.363Z,40.12
2023-05-12T07:10:41.377Z,40.02
2023-05-12T07:11:41.342Z,39.94
2023-05-12T07:12:41.380Z,39.86
2023-05-12T07:13:41.338Z,39.72
2023-05-12T07:14:41.420Z,39.71
2023-05-12T07:15:41.364Z,39.61
2023-05-12T07:16:41.356Z,40.00
2023-05-12T07:17:41.390Z,39.83
2023-05-12T07:18:41.368Z,39.79
2023-05-12T07:19:41.327Z,39.71
2023-05-12T07:20:41.336Z,39.67
2023-05-12T07:21:41.317Z,39.76
2023-05-12T07:22:41.333Z,39.87
2023-05-12T07:23:41.313Z,39.92
2023-05-12T07:24:42.284Z,40.44
2023-05-12T07:25:41.225Z,40.42
2023-05-12T07:26:41.154Z,40.64
2023-05-12T07:27:41.089Z,40.85
2023-05-12T07:28:41.061Z,41.12
2023-05-12T07:29:40.987Z,40.95
2023-05-12T07:30:41.562Z,41.07
2023-05-12T07:31:40.904Z,41.21
2023-05-12T07:32:40.877Z,41.28
2023-05-12T07:33:40.776Z,41.80
2023-05-12T07:34:40.722Z,41.81
2023-05-12T07:35:40.665Z,41.74
2023-05-12T07:36:40.612Z,41.93
2023-05-12T07:37:40.561Z,42.01
2023-05-12T07:38:41.160Z,41.92
2023-05-12T07:39:40.471Z,42.27
2023-05-12T07:40:40.431Z,42.28
2023-05-12T07:41:40.394Z,42.29
2023-05-12T07:42:40.373Z,42.43
2023-05-12T07:43:40.358Z,42.09
2023-05-12T07:44:40.311Z,42.22
2023-05-12T07:45:40.289Z,42.40
2023-05-12T07:46:40.272Z,42.54
2023-05-12T07:47:40.223Z,42.66
2023-05-12T07:48:40.412Z,42.71
2023-05-12T07:49:40.145Z,42.91
2023-05-12T07:50:40.158Z,42.97
2023-05-12T07:51:40.104Z,42.88
2023-05-12T07:52:40.013Z,42.95
2023-05-12T07:53:40.000Z,43.22
2023-05-12T07:54:40.032Z,43.14
2023-05-12T07:55:39.954Z,43.36
2023-05-12T07:56:39.928Z,43.36
2023-05-12T07:57:39.861Z,43.25
2023-05-12T07:58:39.874Z,43.30
2023-05-12T07:59:39.733Z,43.29
2023-05-12T08:00:39.706Z,43.45
2023-05-12T08:01:39.690Z,43.57
2023-05-12T08:02:39.700Z,43.64
2023-05-12T08:03:39.697Z,43.75
2023-05-12T08:04:39.589Z,43.77
2023-05-12T08:05:39.544Z,43.77
2023-05-12T08:06:39.545Z,43.99
2023-05-12T08:08:39.534Z,44.15
2023-05-12T08:09:39.494Z,44.23
2023-05-12T08:10:39.501Z,44.38
2023-05-12T08:11:39.455Z,44.40
2023-05-12T08:12:39.469Z,43.45
2023-05-12T08:13:39.473Z,43.08
2023-05-12T08:14:39.443Z,42.01
2023-05-12T08:15:39.394Z,42.05
2023-05-12T08:16:39.404Z,41.11
2023-05-12T08:17:39.392Z,41.03
2023-05-12T08:18:39.344Z,40.79
2023-05-12T08:19:39.266Z,40.49
2023-05-12T08:20:39.234Z,40.52
2023-05-12T08:21:39.202Z,41.12
2023-05-12T08:22:39.168Z,40.56
2023-05-12T08:23:39.145Z,40.58
2023-05-12T08:24:39.662Z,41.15
2023-05-12T08:25:39.092Z,41.29
2023-05-12T08:26:39.100Z,41.48
2023-05-12T08:27:39.070Z,40.31
2023-05-12T08:28:39.672Z,39.37
2023-05-12T08:29:39.028Z,38.80
2023-05-12T08:30:38.999Z,38.86
2023-05-12T08:31:39.213Z,38.08
2023-05-12T08:32:39.023Z,38.14
2023-05-12T08:33:39.013Z,38.71
2023-05-12T08:34:38.982Z,39.23
2023-05-12T08:35:38.998Z,39.99
2023-05-12T08:36:39.095Z,37.93
2023-05-12T08:37:38.988Z,37.45
2023-05-12T08:38:39.088Z,37.99
2023-05-12T08:39:38.976Z,38.21
2023-05-12T08:40:38.927Z,38.30
2023-05-12T08:41:38.936Z,38.75
2023-05-12T08:42:39.089Z,39.27
2023-05-12T08:43:38.890Z,39.29
2023-05-12T08:44:38.872Z,39.39
2023-05-12T08:45:38.849Z,39.42
2023-05-12T08:46:38.866Z,39.71
2023-05-12T08:47:38.836Z,40.10
2023-05-12T08:48:38.742Z,40.35
2023-05-12T08:49:38.767Z,40.32
2023-05-12T08:50:38.675Z,40.36
2023-05-12T08:51:38.619Z,40.24
2023-05-12T08:52:38.570Z,38.44
2023-05-12T08:53:38.539Z,37.99
2023-05-12T08:54:48.736Z,38.35
2023-05-12T08:55:39.465Z,38.45
2023-05-12T08:57:39.765Z,37.78
2023-05-12T08:58:41.716Z,38.62
2023-05-12T08:59:38.224Z,38.11
2023-05-12T09:00:38.212Z,38.42
2023-05-12T09:01:38.167Z,38.33
2023-05-12T09:02:51.438Z,38.06
2023-05-12T09:03:39.358Z,38.94
2023-05-12T09:04:38.199Z,38.76
2023-05-12T09:05:38.144Z,37.98
2023-05-12T09:06:38.106Z,37.39
2023-05-12T09:07:38.261Z,37.23
2023-05-12T09:08:38.084Z,38.06
2023-05-12T09:09:38.672Z,37.14
2023-05-12T09:10:38.052Z,36.61
2023-05-12T09:11:38.052Z,36.67
2023-05-12T09:12:38.044Z,36.36
2023-05-12T09:13:38.024Z,36.21
2023-05-12T09:14:38.251Z,36.22
2023-05-12T09:15:38.017Z,36.76
2023-05-12T09:16:38.069Z,36.27
2023-05-12T09:17:38.006Z,36.51
2023-05-12T09:18:38.030Z,36.42
2023-05-12T09:19:37.969Z,36.41
2023-05-12T09:20:37.964Z,36.64
2023-05-12T09:21:37.965Z,37.41
2023-05-12T09:22:37.949Z,36.82
2023-05-12T09:23:38.677Z,36.81
2023-05-12T09:24:37.947Z,36.40
2023-05-12T09:25:37.908Z,36.44
2023-05-12T09:26:37.889Z,36.75
2023-05-12T09:27:37.888Z,36.29
2023-05-12T09:28:37.892Z,36.39
2023-05-12T09:30:37.894Z,36.69
2023-05-12T09:31:37.859Z,37.10
2023-05-12T09:32:37.879Z,36.79
2023-05-12T09:33:37.792Z,35.87
2023-05-12T09:34:37.770Z,36.10
2023-05-12T09:35:38.693Z,37.27
2023-05-12T09:36:37.753Z,36.58
2023-05-12T09:37:37.728Z,36.65
2023-05-12T09:38:37.713Z,36.32
2023-05-12T09:39:37.742Z,36.33
2023-05-12T09:40:38.193Z,36.21
2023-05-12T09:41:37.659Z,35.99
2023-05-12T09:42:37.686Z,35.81
2023-05-12T09:43:38.189Z,35.88
2023-05-12T09:44:37.591Z,35.72
2023-05-12T09:45:37.641Z,36.50
2023-05-12T09:46:37.537Z,36.12
2023-05-12T09:47:37.576Z,36.20
2023-05-12T09:48:37.493Z,36.00
2023-05-12T09:49:37.465Z,36.21
2023-05-12T09:50:46.496Z,36.35
2023-05-12T09:51:38.406Z,36.66
2023-05-12T09:52:37.381Z,36.74
2023-05-12T09:53:37.316Z,37.10
2023-05-12T09:54:37.284Z,37.22
2023-05-12T09:55:37.215Z,37.39
2023-05-12T09:56:37.261Z,37.36
2023-05-12T09:57:37.156Z,37.48
2023-05-12T09:58:37.119Z,36.66
2023-05-12T09:59:37.069Z,37.08
2023-05-12T10:00:58.555Z,37.37
2023-05-12T10:01:37.983Z,37.09
2023-05-12T10:02:36.998Z,37.23
2023-05-12T10:03:36.888Z,37.13
2023-05-12T10:04:36.929Z,37.27
2023-05-12T10:05:36.780Z,37.47
2023-05-12T10:06:36.753Z,37.64
2023-05-12T10:07:36.888Z,37.42
2023-05-12T10:08:36.651Z,37.36
2023-05-12T10:09:36.580Z,37.17
2023-05-12T10:10:36.570Z,37.12
2023-05-12T10:11:36.529Z,37.11
2023-05-12T10:12:36.538Z,37.10
2023-05-12T10:13:36.516Z,37.10
2023-05-12T10:14:36.515Z,37.13
2023-05-12T10:15:36.489Z,37.13
2023-05-12T10:16:36.510Z,37.13
2023-05-12T10:17:37.229Z,37.14
2023-05-12T10:18:37.348Z,37.19
2023-05-12T10:19:36.427Z,37.16
2023-05-12T10:20:36.379Z,37.20
2023-05-12T10:21:37.206Z,37.20
2023-05-12T10:22:36.332Z,37.27
2023-05-12T10:23:37.929Z,37.26
2023-05-12T10:24:36.279Z,37.30
2023-05-12T10:25:36.238Z,37.31
2023-05-12T10:26:36.216Z,37.37
2023-05-12T10:27:36.227Z,37.38
2023-05-12T10:28:36.153Z,37.45
2023-05-12T10:29:36.217Z,37.47
2023-05-12T10:30:36.120Z,37.48
2023-05-12T10:31:36.200Z,37.53
2023-05-12T10:32:36.110Z,37.60
2023-05-12T10:33:36.054Z,37.60
2023-05-12T10:34:36.040Z,37.64
2023-05-12T10:35:36.021Z,37.67
2023-05-12T10:36:35.984Z,37.67
2023-05-12T10:37:35.980Z,37.69
2023-05-12T10:38:35.951Z,37.67
2023-05-12T10:39:35.931Z,37.70
2023-05-12T10:40:35.954Z,37.74
2023-05-12T10:41:35.865Z,37.75
2023-05-12T10:42:35.841Z,37.74
2023-05-12T10:43:35.830Z,37.77
2023-05-12T10:44:35.827Z,37.79
2023-05-12T10:45:35.794Z,37.79
2023-05-12T10:46:35.767Z,37.83
2023-05-12T10:47:36.813Z,37.83
2023-05-12T10:48:36.225Z,37.87
2023-05-12T10:49:35.698Z,37.86
2023-05-12T10:50:35.670Z,37.84
2023-05-12T10:51:35.647Z,37.85
2023-05-12T10:52:35.620Z,37.84
2023-05-12T10:53:47.607Z,37.84
2023-05-12T10:54:36.572Z,37.86
2023-05-12T10:55:35.575Z,37.89
2023-05-12T10:56:35.682Z,37.90
2023-05-12T10:57:35.674Z,37.89
2023-05-12T10:58:35.814Z,37.90
2023-05-12T10:59:35.469Z,38.05
2023-05-12T11:00:35.551Z,38.07
2023-05-12T11:01:35.861Z,38.12
2023-05-12T11:02:37.013Z,38.30
2023-05-12T11:03:36.064Z,38.29
2023-05-12T11:04:35.268Z,39.33
2023-05-12T11:05:35.155Z,39.70
2023-05-12T11:06:35.206Z,39.89
2023-05-12T11:07:35.524Z,40.66
2023-05-12T11:08:35.828Z,40.76
2023-05-12T11:09:34.930Z,40.22
2023-05-12T11:10:35.685Z,40.31
2023-05-12T11:11:35.195Z,40.61
2023-05-12T11:12:34.718Z,40.39
2023-05-12T11:13:34.659Z,40.27
2023-05-12T11:14:34.616Z,40.38
2023-05-12T11:15:34.564Z,40.40
2023-05-12T11:16:34.567Z,40.55
2023-05-12T11:17:34.524Z,40.50
2023-05-12T11:18:34.469Z,40.57
2023-05-12T11:19:34.413Z,40.64
2023-05-12T11:20:35.234Z,40.65
2023-05-12T11:21:34.297Z,40.66
2023-05-12T11:22:34.446Z,40.67
2023-05-12T11:23:34.218Z,40.69
2023-05-12T11:24:34.214Z,40.70
2023-05-12T11:25:34.235Z,40.67
2023-05-12T11:26:34.163Z,40.63
2023-05-12T11:27:34.116Z,40.63
2023-05-12T11:28:34.141Z,40.62
2023-05-12T11:29:34.085Z,40.60
2023-05-12T11:30:34.093Z,40.59
2023-05-12T11:31:34.077Z,40.56
2023-05-12T11:32:34.082Z,40.55
2023-05-12T11:33:34.022Z,40.54
2023-05-12T11:34:34.039Z,40.54
2023-05-12T11:35:33.985Z,40.54
2023-05-12T11:36:33.990Z,40.56
2023-05-12T11:37:33.962Z,40.62
2023-05-12T11:38:33.959Z,40.61
2023-05-12T11:39:33.922Z,40.59
2023-05-12T11:40:33.897Z,40.60
2023-05-12T11:41:33.873Z,40.61
2023-05-12T11:42:33.849Z,40.62
2023-05-12T11:43:33.829Z,40.61
2023-05-12T11:44:33.807Z,40.59
2023-05-12T11:45:33.804Z,40.57
2023-05-12T11:46:33.774Z,40.59
2023-05-12T11:47:33.780Z,40.58
2023-05-12T11:48:33.732Z,40.61
2023-05-12T11:49:33.733Z,40.61
2023-05-12T11:50:33.713Z,40.59
2023-05-12T11:51:33.690Z,40.62
2023-05-12T11:52:33.667Z,40.61
2023-05-12T11:53:33.646Z,40.60
2023-05-12T11:54:33.639Z,40.59
2023-05-12T11:55:33.629Z,40.61
2023-05-12T11:56:33.614Z,40.62
2023-05-12T11:57:33.629Z,40.62
2023-05-12T11:58:35.554Z,40.59
2023-05-12T11:59:33.680Z,40.65
2023-05-12T12:00:33.566Z,40.61
2023-05-12T12:01:33.580Z,40.60
2023-05-12T12:02:33.682Z,40.62
2023-05-12T12:03:33.615Z,40.64
2023-05-12T12:04:33.727Z,40.64
2023-05-12T12:05:33.519Z,40.63
2023-05-12T12:06:33.496Z,40.64
2023-05-12T12:07:33.496Z,40.67
2023-05-12T12:08:33.469Z,40.63
2023-05-12T12:09:33.465Z,40.64
2023-05-12T12:10:33.454Z,40.64
2023-05-12T12:11:33.440Z,40.67
2023-05-12T12:12:33.414Z,40.65
2023-05-12T12:13:33.428Z,40.66
2023-05-12T12:14:33.428Z,40.65
2023-05-12T12:15:33.374Z,40.64
2023-05-12T12:16:33.430Z,40.61
2023-05-12T12:17:33.380Z,40.61
2023-05-12T12:18:33.379Z,40.59
2023-05-12T12:19:33.356Z,40.62
2023-05-12T12:20:33.325Z,40.62
2023-05-12T12:21:33.310Z,40.59
2023-05-12T12:22:33.309Z,40.59
2023-05-12T12:23:40.616Z,40.58
2023-05-12T12:24:34.259Z,40.60
2023-05-12T12:25:33.197Z,40.60
2023-05-12T12:26:33.178Z,40.62
2023-05-12T12:27:33.090Z,40.59
2023-05-12T12:28:33.041Z,40.60
2023-05-12T12:29:32.997Z,40.60
2023-05-12T12:30:32.946Z,40.59
2023-05-12T12:31:32.946Z,40.59
2023-05-12T12:32:32.861Z,40.58
2023-05-12T12:33:32.790Z,40.60
2023-05-12T12:34:32.757Z,40.59
2023-05-12T12:35:32.678Z,40.61
2023-05-12T12:36:32.673Z,40.61
2023-05-12T12:37:32.658Z,40.61
2023-05-12T12:38:32.685Z,40.60
2023-05-12T12:39:32.627Z,40.62
2023-05-12T12:40:32.652Z,40.60
2023-05-12T12:41:32.610Z,40.60
2023-05-12T12:42:32.767Z,40.60
2023-05-12T12:43:32.614Z,40.61
2023-05-12T12:44:32.603Z,40.62
2023-05-12T12:45:32.583Z,40.59
2023-05-12T12:46:32.629Z,40.61
2023-05-12T12:47:32.631Z,40.62
2023-05-12T12:48:32.559Z,40.62
2023-05-12T12:49:32.538Z,40.60
2023-05-12T12:50:32.553Z,40.59
2023-05-12T12:51:44.673Z,40.61
2023-05-12T12:52:33.488Z,40.61
2023-05-12T12:53:32.431Z,40.60
2023-05-12T12:54:32.375Z,40.61
2023-05-12T12:55:32.335Z,40.58
2023-05-12T12:56:32.279Z,40.61